Tiempo atmosférico en la estación meteorológica de Valverde, Santa Cruz de Tenerife (1070 m.)



Fecha
DESCASC
Temp. máxima en grados centígrados (hora)
DESCASC
Temp. mínima en grados centígrados (hora)
DESCASC
Temp. media en grados centígrados
DESCASC
Racha de viento máxima en m/sg (hora)
DESCASC
Velocidad máxima media en intervalos de 10 minutos(hora)
DESCASC
Precipitaciones diarias en mm
DESCASC
Precipitaciones de 00:00 a 06:00 en mm
DESCASC
Precipitaciones de 06:00 a 12:00 en mm
DESCASC
Precipitaciones de 12:00 a 18:00 en mm
DESCASC
Precipitaciones de 18:00 a 24:00 en mm
DESCASC
18-08-2019 35.7 (12:20) 23.7 (06:00) 29.7 9.44 (19:30) 5.28 (18:40) 0 0 0 0 0
17-08-2019 36 (14:30) 23.9 (07:00) 29.9 10 (22:20) 5.83 (14:10) 0 0 0 0 0
16-08-2019 33.5 (14:50) 13.3 (04:10) 23.4 9.17 (10:10) 6.67 (10:20) 0 0 0 0 0
15-08-2019 27.8 (15:20) 12.3 (00:00) 20 7.78 (21:40) 5.83 (19:50) 0 0 0 0 0
14-08-2019 20.2 (16:10) 12.4 (00:00) 16.3 9.72 (08:40) 6.11 (01:00) 0 0 0 0 0
13-08-2019 22.4 (14:10) 12.8 (00:00) 17.6 12.22 (21:50) 8.89 (21:50) 0 0 0 0 0
12-08-2019 21.3 (20:10) 13.6 (00:00) 17.4 13.33 (11:00) 6.67 (20:20) 0 0 0 0 0
11-08-2019 20.2 (00:30) 13.8 (00:00) 17 13.89 (08:00) 8.89 (21:40) 0 0 0 0 0
10-08-2019 29 (10:50) 18.1 (00:00) 23.6 8.33 (23:10) 6.11 (23:10) 0 0 0 0 0
09-08-2019 32.3 (15:40) 20.1 (00:00) 26.2 7.5 (13:30) 5.56 (12:40) 0 0 0 0 0
08-08-2019 29.5 (18:40) 14.1 (00:00) 21.8 6.67 (17:10) 4.17 (16:50) 0 0 0 0 0
07-08-2019 23.8 (16:30) 13.6 (00:00) 18.7 11.67 (00:30) 7.78 (00:20) 0 0 0 0 0
06-08-2019 19.8 (14:00) 13.3 (00:00) 16.5 13.33 (23:20) 9.17 (23:30) 0 0 0 0 0
05-08-2019 20.4 (17:50) 13.3 (00:00) 16.8 11.67 (07:50) 6.39 (07:50) 0 0 0 0 0
04-08-2019 19.9 (16:10) 12.8 (00:00) 16.3 12.78 (08:50) 7.78 (19:40) 0 0 0 0 0
03-08-2019 19.3 (14:40) 12.1 (00:00) 15.7 11.94 (23:20) 8.33 (17:50) 0 0 0 0 0
02-08-2019 19.3 (16:50) 11.3 (00:00) 15.3 10.28 (13:40) 6.67 (04:10) 0 0 0 0 0
01-08-2019 19.5 (15:50) 11.8 (00:00) 15.7 11.94 (00:10) 8.33 (00:30) 0 0 0 0 0
31-07-2019 17.7 (14:20) 11.7 (00:00) 14.7 16.67 (02:00) 10.83 (02:30) 0.4 0.4 0 0 0
30-07-2019 16.9 (16:20) 12.4 (00:00) 14.6 15 (14:00) 9.44 (17:10) 0 0 0 0 0
29-07-2019 18 (17:10) 12.2 (00:00) 15.1 12.78 (18:00) 7.5 (16:20) 0.2 0.2 0 0 0
28-07-2019 18.3 (17:00) 12.1 (00:00) 15.2 11.67 (15:40) 8.06 (16:00) 0.4 0 0.2 0 0.2
27-07-2019 21.2 (14:20) 12.8 (00:00) 17 12.5 (02:40) 8.06 (03:00) 0.2 0 0.2 0 0
26-07-2019 24.2 (11:20) 14.3 (00:00) 19.3 12.5 (21:00) 8.33 (21:10) 0 0 0 0 0
25-07-2019 24.6 (13:30) 14.8 (00:00) 19.7 10.28 (19:30) 6.94 (19:00) 0 0 0 0 0
24-07-2019 24.9 (14:10) 12.5 (00:00) 18.7 10.28 (04:20) 5.83 (04:20) 0 0 0 0 0
23-07-2019 23.7 (12:20) 10.9 (00:00) 17.3 11.39 (12:00) 7.5 (00:20) 0 0 0 0 0
22-07-2019 24.9 (15:10) 11.5 (00:00) 18.2 9.72 (23:59) 6.94 (23:59) 0 0 0 0 0
21-07-2019 23.3 (11:30) 13.1 (00:00) 18.2 8.89 (04:50) 5 (04:50) 0 0 0 0 0

Gráficas

Temp. máximas Temp. mínimas Temp. medias Precipitaciones Rachas de viento máximas Velocidades máximas media en intervalos de 10 minutos

Datos horarios

Fecha y hora oficial Temperatura (ºC) Velocidad del viento (km/h) Dirección del viento Racha (km/h) Dirección de racha Precipitación (mm) Presión (hPa) Tendencia (hPa) Humedad (%)
2019-08-19 23:00:00 -- -- -- -- -- -- -- -- --
2019-08-19 22:00:00 25.6 7 Oeste 21 Oeste 0 -- -- 12
2019-08-19 21:00:00 26.4 13 Noroeste 22 Noroeste 0 -- -- 11
2019-08-19 20:00:00 28.6 15 Noroeste 26 Oeste 0 -- -- 10
2019-08-19 19:00:00 29.9 14 Noroeste 19 Noroeste 0 -- -- 10
2019-08-19 18:00:00 32.8 8 Nordeste 22 Norte 0 -- -- 11
2019-08-19 17:00:00 33.3 11 Nordeste 30 Nordeste 0 -- -- 10
2019-08-19 16:00:00 33.2 21 Nordeste 31 Este 0 -- -- 10
2019-08-19 15:00:00 34.6 20 Este 31 Este 0 -- -- 10
2019-08-19 14:00:00 35 21 Este 35 Este 0 -- -- 10
2019-08-19 13:00:00 34.2 23 Este 37 Nordeste 0 -- -- 10
2019-08-19 12:00:00 33.8 23 Este 39 Nordeste 0 -- -- 11
2019-08-19 11:00:00 33 22 Nordeste 40 Nordeste 0 -- -- 11
2019-08-19 10:00:00 31.2 26 Nordeste 39 Nordeste 0 -- -- 12
2019-08-19 09:00:00 28.8 25 Nordeste 37 Nordeste 0 -- -- 13
2019-08-19 08:00:00 26 12 Nordeste 23 Norte 0 -- -- 15
2019-08-19 07:00:00 25.8 9 Nordeste 23 Norte 0 -- -- 14
2019-08-19 06:00:00 24.8 6 Oeste 26 Nordeste 0 -- -- 15
2019-08-19 05:00:00 27.6 11 Nordeste 27 Nordeste 0 -- -- 13
2019-08-19 04:00:00 28.5 12 Nordeste 26 Nordeste 0 -- -- 13
2019-08-19 03:00:00 27.4 8 Nordeste 24 Nordeste 0 -- -- 12
2019-08-19 02:00:00 28.5 14 Norte 31 Norte 0 -- -- 12
2019-08-19 01:00:00 28 9 Nordeste 29 Nordeste 0 -- -- 13
2019-08-19 00:00:00 28.9 15 Nordeste 26 Norte 0 -- -- 12
2019-08-18 23:00:00 28.8 15 Nordeste 27 Nordeste 0 -- -- 12
2019-08-18 22:00:00 28.9 13 Nordeste 27 Nordeste 0 -- -- 12
2019-08-18 21:00:00 27.6 17 Nordeste 32 Nordeste 0 -- -- 12
2019-08-18 20:00:00 28.2 18 Nordeste 34 Nordeste 0 -- -- 11
2019-08-18 19:00:00 32.4 14 Nordeste 31 Nordeste 0 -- -- 10
2019-08-18 18:00:00 34.1 15 Nordeste 23 Nordeste 0 -- -- 10
2019-08-18 17:00:00 32.8 8 Nordeste 15 Nordeste 0 -- -- 11
2019-08-18 16:00:00 32.3 10 Nordeste 21 Nordeste 0 -- -- 11
2019-08-18 15:00:00 33 12 Nordeste 20 Nordeste 0 -- -- 11
2019-08-18 14:00:00 32 13 Nordeste 22 Nordeste 0 -- -- 11
2019-08-18 13:00:00 33.5 12 Nordeste 30 Este 0 -- -- 10
2019-08-18 12:00:00 35.3 19 Nordeste 31 Este 0 -- -- 10
2019-08-18 11:00:00 34.2 8 Nordeste 22 Norte 0 -- -- 10
2019-08-18 10:00:00 30.9 11 Noroeste 19 Norte 0 -- -- 12
2019-08-18 09:00:00 28.1 10 Noroeste 20 Noroeste 0 -- -- 13
2019-08-18 08:00:00 24.3 14 Noroeste 22 Noroeste 0 -- -- 18
2019-08-18 07:00:00 24.7 17 Noroeste 21 Oeste 0 -- -- 21
2019-08-18 06:00:00 23.7 8 Oeste 19 Noroeste 0 -- -- 17
2019-08-18 05:00:00 25.7 13 Oeste 21 Oeste 0 -- -- 17
2019-08-18 04:00:00 25.8 10 Noroeste 17 Noroeste 0 -- -- 18
2019-08-18 03:00:00 25.2 4 Noroeste 16 Noroeste 0 -- -- 16
2019-08-18 02:00:00 26.4 12 Noroeste 27 Noroeste 0 -- -- 17
2019-08-18 01:00:00 26.8 13 Noroeste 25 Nordeste 0 -- -- 14
2019-08-18 00:00:00 28.1 14 Nordeste 34 Norte 0 -- -- 12
2019-08-17 23:00:00 27.8 17 Nordeste 36 Norte 0 -- -- 13
2019-08-17 22:00:00 27.3 13 Norte 30 Norte 0 -- -- 16
2019-08-17 21:00:00 29.1 15 Nordeste 27 Norte 0 -- -- 11
2019-08-17 20:00:00 29.1 10 Norte 24 Norte 0 -- -- 13
2019-08-17 19:00:00 30.8 13 Nordeste 28 Nordeste 0 -- -- 13
2019-08-17 18:00:00 31.7 16 Norte 29 Norte 0 -- -- 13
2019-08-17 17:00:00 32.5 15 Norte 29 Nordeste 0 -- -- 12
2019-08-17 16:00:00 32.8 18 Nordeste 35 Norte 0 -- -- 11
2019-08-17 15:00:00 35.7 15 Nordeste 35 Este 0 -- -- 11
2019-08-17 14:00:00 34.9 20 Este 33 Este 0 -- -- 10
2019-08-17 13:00:00 34.6 17 Este 33 Este 0 -- -- 13
2019-08-17 12:00:00 35.4 19 Este 32 Este 0 -- -- 13
2019-08-17 11:00:00 34.7 18 Este 32 Este 0 -- -- 14
2019-08-17 10:00:00 34.1 14 Este 22 Este 0 -- -- 14
2019-08-17 09:00:00 31.1 5 Sudeste 14 Sur 0 -- -- 16
2019-08-17 08:00:00 27.4 10 Sur 14 Sur 0 -- -- 21
2019-08-17 07:00:00 23.9 3 Sur 7 Sudoeste 0 -- -- 26
2019-08-17 06:00:00 25.6 5 Noroeste 11 Noroeste 0 -- -- 22
2019-08-17 05:00:00 26.5 8 Oeste 16 Norte 0 -- -- 18
2019-08-17 04:00:00 26.5 10 Noroeste 15 Noroeste 0 -- -- 18
2019-08-17 03:00:00 25.7 11 Noroeste 14 Oeste 0 -- -- 20
2019-08-17 02:00:00 24.5 13 Oeste 15 Oeste 0 -- -- 21
2019-08-17 01:00:00 25.4 10 Noroeste 13 Noroeste 0 -- -- 20
2019-08-17 00:00:00 25.3 8 Noroeste 14 Noroeste 0 -- -- 21
2019-08-16 23:00:00 25.7 9 Noroeste 13 Noroeste 0 -- -- 21
2019-08-16 22:00:00 24.8 4 Sur 10 Oeste 0 -- -- 23
2019-08-16 21:00:00 25.7 8 Noroeste 11 Noroeste 0 -- -- 24
2019-08-16 20:00:00 31.9 0 Calma 15 Este 0 -- -- 17
2019-08-16 19:00:00 31.3 12 Este 19 Sudeste 0 -- -- 17
2019-08-16 18:00:00 32.2 13 Este 22 Este 0 -- -- 15
2019-08-16 17:00:00 31.7 17 Sudeste 26 Este 0 -- -- 15
2019-08-16 16:00:00 32.7 16 Sudeste 25 Sudeste 0 -- -- 14
2019-08-16 15:00:00 33.3 17 Sudeste 26 Sudeste 0 -- -- 14
2019-08-16 14:00:00 32.8 16 Sudeste 28 Sudeste 0 -- -- 15
2019-08-16 13:00:00 31.5 17 Sudeste 29 Sudeste 0 -- -- 15
2019-08-16 12:00:00 30.5 20 Sudeste 30 Este 0 -- -- 15
2019-08-16 11:00:00 29.9 22 Este 33 Sudeste 0 -- -- 14
2019-08-16 10:00:00 28.8 20 Sudeste 27 Sudeste 0 -- -- 15
2019-08-16 09:00:00 27.2 15 Sudeste 21 Sudeste 0 -- -- 18
2019-08-16 08:00:00 20.7 6 Sur 11 Sudeste 0 -- -- 26
2019-08-16 07:00:00 20.2 8 Sudoeste 12 Sur 0 -- -- 27
2019-08-16 06:00:00 18.8 7 Sudoeste 12 Sudoeste 0 -- -- 31
2019-08-16 05:00:00 17.8 7 Oeste 21 Norte 0 -- -- 37
2019-08-16 04:00:00 13.8 13 Noroeste 19 Norte 0 -- -- 96
2019-08-16 03:00:00 18.5 9 Noroeste 13 Sudoeste 0 -- -- 34
2019-08-16 02:00:00 18 8 Sudoeste 15 Noroeste 0 -- -- 32
2019-08-16 01:00:00 13.8 14 Noroeste 23 Noroeste 0 -- -- 98
2019-08-16 00:00:00 14.5 16 Noroeste 22 Noroeste 0 -- -- 97
2019-08-15 23:00:00 17.7 16 Noroeste 24 Noroeste 0 -- -- 59
2019-08-15 22:00:00 16.8 17 Noroeste 28 Noroeste 0 -- -- 63
2019-08-15 21:00:00 16.1 18 Noroeste 28 Noroeste 0 -- -- 65
2019-08-15 20:00:00 18.6 20 Noroeste 27 Noroeste 0 -- -- 45
2019-08-15 19:00:00 21.4 16 Noroeste 23 Noroeste 0 -- -- 45
2019-08-15 18:00:00 23.7 14 Noroeste 24 Noroeste 0 -- -- 34
2019-08-15 17:00:00 23.2 14 Noroeste 20 Noroeste 0 -- -- 38
2019-08-15 16:00:00 23.2 12 Noroeste 18 Noroeste 0 -- -- 51
2019-08-15 15:00:00 26.7 10 Noroeste 18 Norte 0 -- -- 26
2019-08-15 14:00:00 27.2 7 Nordeste 19 Nordeste 0 -- -- 20
2019-08-15 13:00:00 26.3 9 Norte 17 Nordeste 0 -- -- 30
2019-08-15 12:00:00 26.8 10 Nordeste 19 Nordeste 0 -- -- 18
2019-08-15 11:00:00 26.6 10 Norte 18 Norte 0 -- -- 19
2019-08-15 10:00:00 24.8 6 Norte 15 Noroeste 0 -- -- 20
2019-08-15 09:00:00 19.6 7 Noroeste 21 Noroeste 0 -- -- 35
2019-08-15 08:00:00 12.7 16 Noroeste 22 Noroeste 0 -- -- 98
2019-08-15 07:00:00 12.4 16 Noroeste 22 Noroeste 0 -- -- 95
2019-08-15 06:00:00 14 14 Noroeste 18 Noroeste 0 -- -- 76
2019-08-15 05:00:00 14.3 13 Noroeste 23 Sudoeste 0 -- -- 51
2019-08-15 04:00:00 12.8 16 Noroeste 24 Noroeste 0 -- -- 75
2019-08-15 03:00:00 13.2 15 Noroeste 21 Noroeste 0 -- -- 77
2019-08-15 02:00:00 14.3 13 Noroeste 21 Noroeste 0 -- -- 64
2019-08-15 01:00:00 14.4 12 Noroeste 20 Noroeste 0 -- -- 60
2019-08-15 00:00:00 12.8 16 Noroeste 28 Noroeste 0 -- -- 96
2019-08-14 23:00:00 13.3 19 Noroeste 26 Noroeste 0 -- -- 98
2019-08-14 22:00:00 13.4 14 Noroeste 19 Noroeste 0 -- -- 96
2019-08-14 21:00:00 13.7 13 Noroeste 18 Noroeste 0 -- -- 93
2019-08-14 20:00:00 15.7 15 Noroeste 24 Noroeste 0 -- -- 85
2019-08-14 19:00:00 16.5 18 Noroeste 28 Noroeste 0 -- -- 84
2019-08-14 18:00:00 17.3 18 Noroeste 26 Noroeste 0 -- -- 79
2019-08-14 17:00:00 18.8 15 Noroeste 21 Noroeste 0 -- -- 75
2019-08-14 16:00:00 19.9 12 Noroeste 21 Noroeste 0 -- -- 66
2019-08-14 15:00:00 19 14 Noroeste 26 Noroeste 0 -- -- 68
2019-08-14 14:00:00 16.9 19 Noroeste 32 Noroeste 0 -- -- 81
2019-08-14 13:00:00 16.2 21 Noroeste 32 Noroeste 0 -- -- 86
2019-08-14 12:00:00 15.9 19 Noroeste 29 Noroeste 0 -- -- 85
2019-08-14 11:00:00 14.5 17 Noroeste 26 Noroeste 0 -- -- 98
2019-08-14 10:00:00 14 21 Noroeste 31 Noroeste 0 -- -- 100
2019-08-14 09:00:00 13.1 21 Noroeste 35 Noroeste 0 -- -- 100
2019-08-14 08:00:00 12.9 18 Noroeste 29 Noroeste 0 -- -- 100
2019-08-14 07:00:00 12.6 17 Noroeste 30 Noroeste 0 -- -- 100
2019-08-14 06:00:00 12.8 18 Noroeste 29 Noroeste 0 -- -- 100
2019-08-14 05:00:00 12.7 21 Noroeste 35 Noroeste 0 -- -- 100
2019-08-14 04:00:00 12.7 20 Noroeste 32 Noroeste 0 -- -- 99
2019-08-14 03:00:00 13 17 Noroeste 26 Noroeste 0 -- -- 99
2019-08-14 02:00:00 12.6 17 Noroeste 29 Noroeste 0 -- -- 98
2019-08-14 01:00:00 12.7 22 Noroeste 32 Noroeste 0 -- -- 98
2019-08-14 00:00:00 12.8 12 Oeste 30 Noroeste 0 -- -- 94
2019-08-13 23:00:00 12.9 20 Noroeste 38 Noroeste 0 -- -- 91
2019-08-13 22:00:00 13.1 31 Noroeste 44 Noroeste 0 -- -- 98
2019-08-13 21:00:00 13.5 25 Noroeste 41 Noroeste 0 -- -- 93
2019-08-13 20:00:00 15 19 Noroeste 35 Noroeste 0 -- -- 82
2019-08-13 19:00:00 16.1 23 Noroeste 36 Noroeste 0 -- -- 77
2019-08-13 18:00:00 17.2 18 Noroeste 40 Noroeste 0 -- -- 71
2019-08-13 17:00:00 17 21 Noroeste 34 Noroeste 0 -- -- 74
2019-08-13 16:00:00 17.5 18 Noroeste 34 Noroeste 0 -- -- 75
2019-08-13 15:00:00 19.2 10 Oeste 33 Oeste 0 -- -- 64
2019-08-13 14:00:00 21.7 17 Norte 30 Norte 0 -- -- 39
2019-08-13 13:00:00 20.2 13 Norte 29 Noroeste 0 -- -- 55
2019-08-13 12:00:00 17.2 18 Noroeste 33 Noroeste 0 -- -- 75
2019-08-13 11:00:00 21.5 14 Nordeste 38 Nordeste 0 -- -- 27
2019-08-13 10:00:00 20.4 16 Norte 31 Nordeste 0 -- -- 31
2019-08-13 09:00:00 17.2 10 Noroeste 26 Noroeste 0 -- -- 54
2019-08-13 08:00:00 14.3 12 Noroeste 19 Noroeste 0 -- -- 77
2019-08-13 07:00:00 15.7 5 Noroeste 24 Norte 0 -- -- 55
2019-08-13 06:00:00 15.9 9 Norte 27 Noroeste 0 -- -- 46
2019-08-13 05:00:00 16.3 10 Noroeste 28 Nordeste 0 -- -- 56
2019-08-13 04:00:00 18.1 16 Nordeste 32 Norte 0 -- -- 26
2019-08-13 03:00:00 19.1 17 Norte 29 Nordeste 0 -- -- 18
2019-08-13 02:00:00 15.7 10 Noroeste 37 Nordeste 0 -- -- 47
2019-08-13 01:00:00 19.5 23 Nordeste 39 Nordeste 0 -- -- 23
2019-08-13 00:00:00 17.4 10 Noroeste 22 Noroeste 0 -- -- 34
2019-08-12 23:00:00 13.9 14 Noroeste 32 Noroeste 0 -- -- 85
2019-08-12 22:00:00 14.3 18 Noroeste 29 Noroeste 0 -- -- 84
2019-08-12 21:00:00 18.4 16 Norte 41 Nordeste 0 -- -- 27
2019-08-12 20:00:00 20.9 21 Norte 37 Norte 0 -- -- 13
2019-08-12 19:00:00 18 17 Noroeste 33 Noroeste 0 -- -- 61
2019-08-12 18:00:00 18.3 15 Noroeste 37 Oeste 0 -- -- 70
2019-08-12 17:00:00 18.2 20 Noroeste 36 Noroeste 0 -- -- 72
2019-08-12 16:00:00 18.8 12 Noroeste 40 Noroeste 0 -- -- 72
2019-08-12 15:00:00 17.8 20 Oeste 39 Oeste 0 -- -- 80
2019-08-12 14:00:00 18.5 17 Noroeste 40 Noroeste 0 -- -- 74
2019-08-12 13:00:00 18.7 12 Norte 32 Nordeste 0 -- -- 78
2019-08-12 12:00:00 17.6 15 Norte 43 Noroeste 0 -- -- 79
2019-08-12 11:00:00 15.3 23 Noroeste 48 Noroeste 0 -- -- 97
2019-08-12 10:00:00 16 8 Nordeste 32 Noroeste 0 -- -- 93
2019-08-12 09:00:00 14.6 15 Oeste 31 Oeste 0 -- -- 100
2019-08-12 08:00:00 14.1 15 Oeste 33 Noroeste 0 -- -- 100
2019-08-12 07:00:00 14.3 12 Noroeste 36 Nordeste 0 -- -- 100
2019-08-12 06:00:00 14.2 14 Nordeste 33 Norte 0 -- -- 100
2019-08-12 05:00:00 14.1 17 Noroeste 35 Noroeste 0 -- -- 98
2019-08-12 04:00:00 13.8 12 Noroeste 36 Noroeste 0 -- -- 97
2019-08-12 03:00:00 14.3 13 Noroeste 32 Norte 0 -- -- 84
2019-08-12 02:00:00 13.8 9 Norte 29 Oeste 0 -- -- 94
2019-08-12 01:00:00 13.8 9 Noroeste 38 Oeste 0 -- -- 96
2019-08-12 00:00:00 14 12 Noroeste 37 Noroeste 0 -- -- 96
2019-08-11 23:00:00 13.8 22 Noroeste 46 Noroeste 0 -- -- 98
2019-08-11 22:00:00 14.2 30 Noroeste 44 Noroeste 0 -- -- 98
2019-08-11 21:00:00 14.4 31 Noroeste 45 Noroeste 0 -- -- 96
2019-08-11 20:00:00 15 29 Noroeste 43 Noroeste 0 -- -- 98
2019-08-11 19:00:00 16.2 21 Noroeste 36 Noroeste 0 -- -- 94
2019-08-11 18:00:00 16.8 25 Noroeste 43 Noroeste 0 -- -- 94
2019-08-11 17:00:00 17.2 27 Noroeste 38 Noroeste 0 -- -- 93
2019-08-11 16:00:00 19.1 20 Noroeste 32 Noroeste 0 -- -- 83
2019-08-11 15:00:00 19.2 24 Noroeste 37 Noroeste 0 -- -- 83
2019-08-11 14:00:00 18.1 26 Noroeste 42 Noroeste 0 -- -- 90
2019-08-11 13:00:00 18 20 Noroeste 36 Oeste 0 -- -- 87
2019-08-11 12:00:00 18.7 15 Noroeste 26 Oeste 0 -- -- 87
2019-08-11 11:00:00 18 6 Oeste 25 Norte 0 -- -- 97
2019-08-11 10:00:00 16.1 17 Nordeste 35 Norte 0 -- -- 100
2019-08-11 09:00:00 16.4 15 Oeste 42 Noroeste 0 -- -- 99
2019-08-11 08:00:00 16.3 22 Noroeste 50 Noroeste 0 -- -- 99
2019-08-11 07:00:00 16.4 31 Noroeste 45 Noroeste 0 -- -- 99
2019-08-11 06:00:00 16.3 22 Noroeste 44 Noroeste 0 -- -- 99
2019-08-11 05:00:00 15.9 19 Oeste 40 Oeste 0 -- -- 98
2019-08-11 04:00:00 15.5 15 Oeste 24 Oeste 0 -- -- 96
2019-08-11 03:00:00 16.7 14 Oeste 26 Noroeste 0 -- -- 73
2019-08-11 02:00:00 18.8 16 Noroeste 36 Noroeste 0 -- -- 58
2019-08-11 01:00:00 20.2 19 Noroeste 30 Noroeste 0 -- -- 51
2019-08-11 00:00:00 19.4 18 Oeste 30 Noroeste 0 -- -- 54
2019-08-10 23:00:00 18.7 21 Noroeste 28 Noroeste 0 -- -- 59
2019-08-10 22:00:00 18.5 19 Oeste 27 Noroeste 0 -- -- 62
2019-08-10 21:00:00 19.3 20 Noroeste 26 Noroeste 0 -- -- 59
2019-08-10 20:00:00 22.9 18 Noroeste 27 Noroeste 0 -- -- 48
2019-08-10 19:00:00 24.7 18 Noroeste 25 Oeste 0 -- -- 39
2019-08-10 18:00:00 23.6 18 Noroeste 28 Noroeste 0 -- -- 47
2019-08-10 17:00:00 21.9 21 Noroeste 29 Noroeste 0 -- -- 58
2019-08-10 16:00:00 22.4 20 Noroeste 27 Norte 0 -- -- 56
2019-08-10 15:00:00 23.9 17 Noroeste 27 Noroeste 0 -- -- 55
2019-08-10 14:00:00 25.9 14 Noroeste 26 Noroeste 0 -- -- 36
2019-08-10 13:00:00 23.7 16 Noroeste 23 Noroeste 0 -- -- 41
2019-08-10 12:00:00 26 16 Noroeste 24 Noroeste 0 -- -- 16
2019-08-10 11:00:00 26.9 16 Noroeste 28 Noroeste 0 -- -- 17
2019-08-10 10:00:00 28.7 19 Noroeste 28 Oeste 0 -- -- 21
2019-08-10 09:00:00 27.5 18 Noroeste 26 Oeste 0 -- -- 28
2019-08-10 08:00:00 25.1 21 Oeste 28 Noroeste 0 -- -- 18
2019-08-10 07:00:00 23.1 17 Noroeste 24 Noroeste 0 -- -- 11
2019-08-10 06:00:00 19.9 15 Noroeste 21 Noroeste 0 -- -- 19
2019-08-10 05:00:00 22.4 16 Noroeste 26 Noroeste 0 -- -- 13
2019-08-10 04:00:00 24.8 18 Oeste 22 Noroeste 0 -- -- 6
2019-08-10 03:00:00 23.7 18 Oeste 22 Oeste 0 -- -- 8
2019-08-10 02:00:00 24.7 16 Oeste 18 Oeste 0 -- -- 6
2019-08-10 01:00:00 24.7 15 Oeste 21 Oeste 0 -- -- 7
2019-08-10 00:00:00 24.9 16 Oeste 19 Oeste 0 -- -- 7
2019-08-09 23:00:00 24.9 15 Oeste 18 Oeste 0 -- -- 6
2019-08-09 22:00:00 25 16 Oeste 20 Oeste 0 -- -- 7
2019-08-09 21:00:00 23.1 13 Noroeste 16 Noroeste 0 -- -- 12
2019-08-09 20:00:00 25.3 12 Noroeste 20 Noroeste 0 -- -- 16
2019-08-09 19:00:00 28.9 15 Noroeste 20 Noroeste 0 -- -- 11
2019-08-09 18:00:00 29.8 13 Noroeste 19 Noroeste 0 -- -- 10
2019-08-09 17:00:00 29.5 9 Este 20 Noroeste 0 -- -- 25
2019-08-09 16:00:00 30.5 13 Noroeste 23 Noroeste 0 -- -- 23
2019-08-09 15:00:00 30.5 12 Sudeste 21 Oeste 0 -- -- 17
2019-08-09 14:00:00 32.1 12 Oeste 27 Oeste 0 -- -- 20
2019-08-09 13:00:00 31.4 19 Oeste 26 Oeste 0 -- -- 12
2019-08-09 12:00:00 31.3 15 Oeste 26 Oeste 0 -- -- 29
2019-08-09 11:00:00 30.8 14 Oeste 26 Oeste 0 -- -- 25
2019-08-09 10:00:00 30.3 14 Oeste 23 Oeste 0 -- -- 22
2019-08-09 09:00:00 27.9 13 Oeste 18 Oeste 0 -- -- 8
2019-08-09 08:00:00 22.6 8 Oeste 13 Oeste 0 -- -- 11
2019-08-09 07:00:00 21.1 4 Oeste 9 Noroeste 0 -- -- 12
2019-08-09 06:00:00 22.5 4 Norte 11 Oeste 0 -- -- 12
2019-08-09 05:00:00 22.8 3 Oeste 8 Sur 0 -- -- 10
2019-08-09 04:00:00 20.8 3 Sudoeste 8 Oeste 0 -- -- 12
2019-08-09 03:00:00 21.2 0 Calma 9 Sudoeste 0 -- -- 14
2019-08-09 02:00:00 20.9 2 Noroeste 11 Noroeste 0 -- -- 19
2019-08-09 01:00:00 20.5 6 Oeste 14 Oeste 0 -- -- 22
2019-08-09 00:00:00 23.3 7 Noroeste 10 Noroeste 0 -- -- 17
2019-08-08 23:00:00 21.9 4 Noroeste 7 Sudoeste 0 -- -- 19
2019-08-08 22:00:00 20.8 6 Oeste 8 Oeste 0 -- -- 21
2019-08-08 21:00:00 22.9 5 Noroeste 9 Oeste 0 -- -- 27
2019-08-08 20:00:00 26.9 2 Norte 13 Este 0 -- -- 21
2019-08-08 19:00:00 28.3 8 Este 15 Norte 0 -- -- 19
2019-08-08 18:00:00 28.7 6 Sudeste 24 Sudeste 0 -- -- 20
2019-08-08 17:00:00 27.2 14 Sudeste 23 Sudeste 0 -- -- 15
2019-08-08 16:00:00 27.1 10 Sudeste 22 Este 0 -- -- 25
2019-08-08 15:00:00 27.5 10 Este 21 Sudeste 0 -- -- 22
2019-08-08 14:00:00 28.1 9 Este 18 Este 0 -- -- 21
2019-08-08 13:00:00 28.3 9 Este 17 Este 0 -- -- 22
2019-08-08 12:00:00 27.3 11 Este 19 Este 0 -- -- 32
2019-08-08 11:00:00 25.4 8 Este 17 Este 0 -- -- 30
2019-08-08 10:00:00 24.7 6 Este 17 Sudeste 0 -- -- 19
2019-08-08 09:00:00 24.3 5 Sudeste 12 Sudeste 0 -- -- 13
2019-08-08 08:00:00 18 6 Sur 9 Sudeste 0 -- -- 19
2019-08-08 07:00:00 17.6 3 Oeste 10 Oeste 0 -- -- 14
2019-08-08 06:00:00 18 9 Norte 18 Noroeste 0 -- -- 25
2019-08-08 05:00:00 18.8 15 Noroeste 17 Noroeste 0 -- -- 18
2019-08-08 04:00:00 16.7 6 Noroeste 9 Noroeste 0 -- -- 18
2019-08-08 03:00:00 16.7 4 Sudoeste 8 Sudoeste 0 -- -- 22
2019-08-08 02:00:00 16.5 4 Sur 9 Sur 0 -- -- 20
2019-08-08 01:00:00 15.9 7 Sur 11 Oeste 0 -- -- 25
2019-08-08 00:00:00 14.1 9 Noroeste 14 Noroeste 0 -- -- 49
2019-08-07 23:00:00 15 10 Oeste 15 Noroeste 0 -- -- 38
2019-08-07 22:00:00 15.5 12 Noroeste 15 Noroeste 0 -- -- 50
2019-08-07 21:00:00 16.5 13 Noroeste 16 Noroeste 0 -- -- 62
2019-08-07 20:00:00 19.3 12 Noroeste 22 Noroeste 0 -- -- 60
2019-08-07 19:00:00 20.2 14 Noroeste 23 Noroeste 0 -- -- 61
2019-08-07 18:00:00 22.4 11 Noroeste 19 Noroeste 0 -- -- 46
2019-08-07 17:00:00 20.7 11 Este 19 Este 0 -- -- 74
2019-08-07 16:00:00 21.9 10 Noroeste 22 Noroeste 0 -- -- 58
2019-08-07 15:00:00 21.4 11 Noroeste 21 Noroeste 0 -- -- 60
2019-08-07 14:00:00 20.5 13 Noroeste 31 Norte 0 -- -- 66
2019-08-07 13:00:00 17.4 21 Noroeste 37 Noroeste 0 -- -- 80
2019-08-07 12:00:00 17.4 19 Noroeste 34 Noroeste 0 -- -- 83
2019-08-07 11:00:00 16.9 15 Noroeste 24 Noroeste 0 -- -- 87
2019-08-07 10:00:00 15.9 15 Noroeste 23 Noroeste 0 -- -- 91
2019-08-07 09:00:00 14.6 11 Noroeste 18 Noroeste 0 -- -- 99
2019-08-07 08:00:00 14 15 Noroeste 28 Norte 0 -- -- 100
2019-08-07 07:00:00 14 15 Noroeste 35 Noroeste 0 -- -- 100
2019-08-07 06:00:00 13.6 18 Noroeste 34 Noroeste 0 -- -- 100
2019-08-07 05:00:00 13.9 19 Noroeste 29 Oeste 0 -- -- 100
2019-08-07 04:00:00 14.6 18 Noroeste 32 Noroeste 0 -- -- 100
2019-08-07 03:00:00 14.2 7 Nordeste 33 Norte 0 -- -- 100
2019-08-07 02:00:00 14.1 10 Nordeste 35 Noroeste 0 -- -- 100
2019-08-07 01:00:00 13.7 22 Noroeste 42 Noroeste 0 -- -- 99
2019-08-07 00:00:00 13.7 31 Noroeste 48 Noroeste 0 -- -- 99
2019-08-06 23:00:00 14.1 28 Noroeste 46 Noroeste 0 -- -- 99
2019-08-06 22:00:00 14.4 26 Noroeste 43 Noroeste 0 -- -- 99
2019-08-06 21:00:00 14.6 21 Noroeste 36 Oeste 0 -- -- 95
2019-08-06 20:00:00 15.4 22 Noroeste 35 Oeste 0 -- -- 87
2019-08-06 19:00:00 16.4 24 Noroeste 40 Noroeste 0 -- -- 84
2019-08-06 18:00:00 17.5 25 Noroeste 42 Oeste 0 -- -- 77
2019-08-06 17:00:00 18.2 23 Noroeste 40 Noroeste 0 -- -- 70
2019-08-06 16:00:00 17.5 26 Noroeste 41 Noroeste 0 -- -- 79
2019-08-06 15:00:00 17.4 26 Noroeste 44 Noroeste 0 -- -- 81
2019-08-06 14:00:00 19.8 9 Este 36 Nordeste 0 -- -- 69
2019-08-06 13:00:00 18.5 21 Nordeste 39 Norte 0 -- -- 71
2019-08-06 12:00:00 18.5 13 Nordeste 33 Nordeste 0 -- -- 74
2019-08-06 11:00:00 18.3 9 Sudeste 39 Noroeste 0 -- -- 75
2019-08-06 10:00:00 17 14 Noroeste 32 Noroeste 0 -- -- 78
2019-08-06 09:00:00 15.2 16 Oeste 32 Noroeste 0 -- -- 87
2019-08-06 08:00:00 13.8 13 Noroeste 24 Noroeste 0 -- -- 97
2019-08-06 07:00:00 13.9 16 Noroeste 25 Noroeste 0 -- -- 100
2019-08-06 06:00:00 13.9 18 Noroeste 30 Noroeste 0 -- -- 99
2019-08-06 05:00:00 13.5 16 Noroeste 30 Noroeste 0 -- -- 99
2019-08-06 04:00:00 14.1 15 Noroeste 30 Noroeste 0 -- -- 99
2019-08-06 03:00:00 14.1 13 Noroeste 27 Noroeste 0 -- -- 98
2019-08-06 02:00:00 13.9 12 Noroeste 26 Noroeste 0 -- -- 97
2019-08-06 01:00:00 13.9 18 Noroeste 36 Noroeste 0 -- -- 93
2019-08-06 00:00:00 14 20 Noroeste 33 Noroeste 0 -- -- 94
2019-08-05 23:00:00 14.4 9 Oeste 28 Noroeste 0 -- -- 91
2019-08-05 22:00:00 15 11 Noroeste 27 Noroeste 0 -- -- 79
2019-08-05 21:00:00 14.2 19 Noroeste 37 Noroeste 0 -- -- 90
2019-08-05 20:00:00 15.1 21 Noroeste 34 Noroeste 0 -- -- 91
2019-08-05 19:00:00 17.5 12 Noroeste 24 Noroeste 0 -- -- 79
2019-08-05 18:00:00 19.6 11 Noroeste 28 Noroeste 0 -- -- 62
2019-08-05 17:00:00 19.6 13 Noroeste 31 Noroeste 0 -- -- 63
2019-08-05 16:00:00 18.8 10 Noroeste 40 Nordeste 0 -- -- 73
2019-08-05 15:00:00 19.1 15 Nordeste 30 Nordeste 0 -- -- 63
2019-08-05 14:00:00 18.6 13 Nordeste 35 Noroeste 0 -- -- 71
2019-08-05 13:00:00 18.8 13 Noroeste 36 Noroeste 0 -- -- 76
2019-08-05 12:00:00 17.9 14 Noroeste 40 Oeste 0 -- -- 81
2019-08-05 11:00:00 15.8 21 Noroeste 39 Oeste 0 -- -- 94
2019-08-05 10:00:00 14.7 14 Oeste 39 Noroeste 0 -- -- 100
2019-08-05 09:00:00 14.2 9 Oeste 38 Noroeste 0 -- -- 100
2019-08-05 08:00:00 13.7 22 Noroeste 42 Noroeste 0 -- -- 100
2019-08-05 07:00:00 13.7 12 Noroeste 31 Noroeste 0 -- -- 100
2019-08-05 06:00:00 13.6 9 Este 31 Nordeste 0 -- -- 100
2019-08-05 05:00:00 13.6 10 Este 26 Nordeste 0 -- -- 100
2019-08-05 04:00:00 13.9 11 Nordeste 33 Norte 0 -- -- 100
2019-08-05 03:00:00 13.6 18 Norte 38 Norte 0 -- -- 100
2019-08-05 02:00:00 13.9 13 Nordeste 38 Norte 0 -- -- 100
2019-08-05 01:00:00 13.8 8 Nordeste 29 Noroeste 0 -- -- 100
2019-08-05 00:00:00 14 9 Oeste 27 Noroeste 0 -- -- 100
2019-08-04 23:00:00 13.9 10 Oeste 21 Noroeste 0 -- -- 100
2019-08-04 22:00:00 14.1 9 Nordeste 29 Norte 0 -- -- 100
2019-08-04 21:00:00 14.2 8 Sudeste 40 Noroeste 0 -- -- 100
2019-08-04 20:00:00 14.7 28 Noroeste 45 Noroeste 0 -- -- 99
2019-08-04 19:00:00 14.9 28 Noroeste 41 Noroeste 0 -- -- 98
2019-08-04 18:00:00 16.3 20 Noroeste 39 Noroeste 0 -- -- 86
2019-08-04 17:00:00 18.6 12 Noroeste 35 Noroeste 0 -- -- 74
2019-08-04 16:00:00 19.1 10 Noroeste 39 Norte 0 -- -- 67
2019-08-04 15:00:00 18.3 18 Noroeste 32 Noroeste 0 -- -- 73
2019-08-04 14:00:00 17.6 18 Noroeste 35 Noroeste 0 -- -- 76
2019-08-04 13:00:00 16.9 16 Noroeste 32 Noroeste 0 -- -- 80
2019-08-04 12:00:00 16.7 15 Nordeste 33 Norte 0 -- -- 77
2019-08-04 11:00:00 14.8 20 Noroeste 32 Noroeste 0 -- -- 90
2019-08-04 10:00:00 14 28 Noroeste 42 Noroeste 0 -- -- 96
2019-08-04 09:00:00 13.5 23 Noroeste 46 Noroeste 0 -- -- 100
2019-08-04 08:00:00 12.9 17 Noroeste 36 Noroeste 0 -- -- 100
2019-08-04 07:00:00 13 16 Noroeste 33 Noroeste 0 -- -- 100
2019-08-04 06:00:00 12.8 15 Noroeste 33 Noroeste 0 -- -- 100
2019-08-04 05:00:00 13.1 9 Nordeste 34 Noroeste 0 -- -- 100
2019-08-04 04:00:00 13.1 16 Oeste 41 Oeste 0 -- -- 100
2019-08-04 03:00:00 13.4 13 Oeste 44 Noroeste 0 -- -- 100
2019-08-04 02:00:00 13 17 Noroeste 31 Oeste 0 -- -- 100
2019-08-04 01:00:00 13 8 Norte 26 Noroeste 0 -- -- 100
2019-08-04 00:00:00 13 10 Este 43 Noroeste 0 -- -- 100
2019-08-03 23:00:00 13.3 25 Noroeste 42 Noroeste 0 -- -- 99
2019-08-03 22:00:00 13 28 Noroeste 41 Noroeste 0 -- -- 96
2019-08-03 21:00:00 13.3 21 Noroeste 39 Noroeste 0 -- -- 90
2019-08-03 20:00:00 15.5 27 Noroeste 41 Noroeste 0 -- -- 76
2019-08-03 19:00:00 17.5 26 Noroeste 37 Noroeste 0 -- -- 65
2019-08-03 18:00:00 17.9 30 Noroeste 42 Noroeste 0 -- -- 70
2019-08-03 17:00:00 17.8 21 Noroeste 38 Noroeste 0 -- -- 69
2019-08-03 16:00:00 18.1 22 Noroeste 34 Noroeste 0 -- -- 61
2019-08-03 15:00:00 18.9 16 Noroeste 27 Noroeste 0 -- -- 68
2019-08-03 14:00:00 18 20 Noroeste 30 Noroeste 0 -- -- 74
2019-08-03 13:00:00 16.9 19 Noroeste 29 Noroeste 0 -- -- 77
2019-08-03 12:00:00 17.1 15 Noroeste 28 Noroeste 0 -- -- 75
2019-08-03 11:00:00 18.3 12 Noroeste 24 Noroeste 0 -- -- 66
2019-08-03 10:00:00 14.7 13 Noroeste 28 Noroeste 0 -- -- 98
2019-08-03 09:00:00 13.6 19 Noroeste 28 Noroeste 0 -- -- 100
2019-08-03 08:00:00 12.9 15 Noroeste 25 Noroeste 0 -- -- 100
2019-08-03 07:00:00 12.1 11 Noroeste 18 Noroeste 0 -- -- 100
2019-08-03 06:00:00 12.4 11 Noroeste 19 Noroeste 0 -- -- 100
2019-08-03 05:00:00 13.2 9 Oeste 26 Noroeste 0 -- -- 100
2019-08-03 04:00:00 13.5 17 Noroeste 27 Noroeste 0 -- -- 100
2019-08-03 03:00:00 13.6 13 Noroeste 29 Noroeste 0 -- -- 100
2019-08-03 02:00:00 12.7 12 Oeste 15 Oeste 0 -- -- 100
2019-08-03 01:00:00 12.9 9 Oeste 32 Noroeste 0 -- -- 100
2019-08-03 00:00:00 13.6 23 Noroeste 35 Noroeste 0 -- -- 100
2019-08-02 23:00:00 13.7 20 Noroeste 35 Oeste 0 -- -- 100
2019-08-02 22:00:00 13.5 18 Noroeste 25 Noroeste 0 -- -- 99
2019-08-02 21:00:00 13.6 17 Noroeste 28 Noroeste 0 -- -- 93
2019-08-02 20:00:00 15.7 23 Noroeste 32 Noroeste 0 -- -- 84
2019-08-02 19:00:00 15.8 19 Noroeste 27 Noroeste 0 -- -- 85
2019-08-02 18:00:00 16.5 17 Noroeste 25 Noroeste 0 -- -- 81
2019-08-02 17:00:00 19.3 14 Noroeste 25 Noroeste 0 -- -- 68
2019-08-02 16:00:00 18.3 19 Noroeste 28 Noroeste 0 -- -- 72
2019-08-02 15:00:00 17.8 17 Noroeste 32 Noroeste 0 -- -- 76
2019-08-02 14:00:00 16.4 17 Noroeste 37 Oeste 0 -- -- 82
2019-08-02 13:00:00 17.1 10 Norte 30 Noroeste 0 -- -- 79
2019-08-02 12:00:00 16.3 13 Noroeste 32 Noroeste 0 -- -- 85
2019-08-02 11:00:00 14.2 24 Noroeste 31 Noroeste 0 -- -- 94
2019-08-02 10:00:00 13.2 21 Noroeste 29 Noroeste 0 -- -- 100
2019-08-02 09:00:00 12.7 15 Noroeste 25 Noroeste 0 -- -- 100
2019-08-02 08:00:00 12 9 Noroeste 15 Noroeste 0 -- -- 100
2019-08-02 07:00:00 12.2 9 Noroeste 22 Noroeste 0 -- -- 100
2019-08-02 06:00:00 12.4 17 Noroeste 33 Noroeste 0 -- -- 100
2019-08-02 05:00:00 13.1 20 Noroeste 33 Noroeste 0 -- -- 100
2019-08-02 04:00:00 12.7 22 Noroeste 35 Noroeste 0 -- -- 100
2019-08-02 03:00:00 13.1 15 Noroeste 27 Noroeste 0 -- -- 100
2019-08-02 02:00:00 12.3 11 Noroeste 27 Noroeste 0 -- -- 100
2019-08-02 01:00:00 12.8 19 Noroeste 31 Noroeste 0 -- -- 100
2019-08-02 00:00:00 12.9 21 Noroeste 36 Noroeste 0 -- -- 100
2019-08-01 23:00:00 13 23 Noroeste 35 Noroeste 0 -- -- 100
2019-08-01 22:00:00 13.1 20 Noroeste 29 Noroeste 0 -- -- 99
2019-08-01 21:00:00 13.6 19 Noroeste 27 Noroeste 0 -- -- 96
2019-08-01 20:00:00 15 23 Noroeste 31 Noroeste 0 -- -- 87
2019-08-01 19:00:00 15.5 23 Noroeste 32 Noroeste 0 -- -- 85
2019-08-01 18:00:00 16.3 23 Noroeste 35 Noroeste 0 -- -- 80
2019-08-01 17:00:00 16.9 19 Noroeste 33 Noroeste 0 -- -- 73
2019-08-01 16:00:00 19.2 13 Nordeste 24 Nordeste 0 -- -- 69
2019-08-01 15:00:00 16.8 16 Noroeste 36 Noroeste 0 -- -- 77
2019-08-01 14:00:00 16.9 24 Noroeste 35 Noroeste 0 -- -- 75
2019-08-01 13:00:00 15.8 24 Noroeste 40 Noroeste 0 -- -- 78
2019-08-01 12:00:00 16 17 Noroeste 31 Oeste 0 -- -- 77
2019-08-01 11:00:00 16.7 8 Nordeste 21 Nordeste 0 -- -- 78
2019-08-01 10:00:00 15.6 11 Nordeste 19 Nordeste 0 -- -- 84
2019-08-01 09:00:00 12.8 9 Noroeste 31 Noroeste 0 -- -- 100
2019-08-01 08:00:00 12.4 21 Noroeste 43 Oeste 0 -- -- 100
2019-08-01 07:00:00 11.9 13 Oeste 42 Noroeste 0 -- -- 100
2019-08-01 06:00:00 12.7 18 Oeste 39 Noroeste 0 -- -- 100
2019-08-01 05:00:00 12.4 22 Noroeste 43 Noroeste 0 -- -- 100
2019-08-01 04:00:00 12.3 13 Oeste 36 Oeste 0 -- -- 100
2019-08-01 03:00:00 12 17 Noroeste 32 Noroeste 0 -- -- 100
2019-08-01 02:00:00 12.3 17 Noroeste 35 Noroeste 0 -- -- 99
2019-08-01 01:00:00 12 23 Noroeste 43 Noroeste 0 -- -- 95
2019-08-01 00:00:00 12.3 20 Noroeste 44 Noroeste 0 -- -- 97
2019-07-31 23:00:00 12.3 13 Oeste 41 Noroeste 0 -- -- 98
2019-07-31 22:00:00 12.7 29 Noroeste 45 Noroeste 0 -- -- 99
2019-07-31 21:00:00 13 24 Noroeste 43 Noroeste 0 -- -- 98
2019-07-31 20:00:00 13.4 24 Noroeste 41 Oeste 0 -- -- 94
2019-07-31 19:00:00 14.4 26 Noroeste 37 Noroeste 0 -- -- 87
2019-07-31 18:00:00 14.2 19 Noroeste 33 Noroeste 0 -- -- 88
2019-07-31 17:00:00 16.6 12 Nordeste 39 Noroeste 0 -- -- 74
2019-07-31 16:00:00 15.2 22 Noroeste 43 Noroeste 0 -- -- 80
2019-07-31 15:00:00 15.9 21 Noroeste 37 Noroeste 0 -- -- 75
2019-07-31 14:00:00 16.7 11 Este 36 Nordeste 0 -- -- 71
2019-07-31 13:00:00 16.5 10 Sudoeste 50 Noroeste 0 -- -- 72
2019-07-31 12:00:00 14.8 28 Noroeste 48 Noroeste 0 -- -- 82
2019-07-31 11:00:00 14.1 27 Noroeste 50 Noroeste 0 -- -- 87
2019-07-31 10:00:00 13.8 8 Sudeste 45 Noroeste 0 -- -- 91
2019-07-31 09:00:00 12.6 31 Noroeste 49 Noroeste 0 -- -- 96
2019-07-31 08:00:00 11.9 31 Noroeste 44 Oeste 0 -- -- 100
2019-07-31 07:00:00 11.9 13 Sudoeste 41 Noroeste 0 -- -- 100
2019-07-31 06:00:00 11.7 30 Noroeste 44 Noroeste 0 -- -- 100
2019-07-31 05:00:00 12.2 22 Noroeste 49 Noroeste 0.2 -- -- 100
2019-07-31 04:00:00 12.5 12 Nordeste 44 Noroeste 0 -- -- 100
2019-07-31 03:00:00 12.9 32 Noroeste 57 Oeste 0.2 -- -- 100
2019-07-31 02:00:00 12.9 23 Oeste 60 Noroeste 0 -- -- 100
2019-07-31 01:00:00 12.1 11 Nordeste 48 Noroeste 0 -- -- 100
2019-07-31 00:00:00 12.4 28 Noroeste 48 Noroeste 0 -- -- 100
2019-07-30 23:00:00 12.6 12 Sur 45 Oeste 0 -- -- 100
2019-07-30 22:00:00 12.8 16 Oeste 41 Noroeste 0 -- -- 100
2019-07-30 21:00:00 12.8 27 Noroeste 51 Noroeste 0 -- -- 100
2019-07-30 20:00:00 13.3 10 Sur 32 Noroeste 0 -- -- 99
2019-07-30 19:00:00 13.5 19 Noroeste 45 Noroeste 0 -- -- 99
2019-07-30 18:00:00 13.9 32 Noroeste 47 Noroeste 0 -- -- 98
2019-07-30 17:00:00 15 29 Noroeste 49 Noroeste 0 -- -- 95
2019-07-30 16:00:00 15.9 24 Noroeste 43 Noroeste 0 -- -- 86
2019-07-30 15:00:00 16.2 28 Noroeste 51 Oeste 0 -- -- 84
2019-07-30 14:00:00 16.3 32 Noroeste 54 Noroeste 0 -- -- 83
2019-07-30 13:00:00 14.9 29 Noroeste 47 Oeste 0 -- -- 95
2019-07-30 12:00:00 14.8 34 Noroeste 45 Noroeste 0 -- -- 99
2019-07-30 11:00:00 14.8 20 Nordeste 41 Nordeste 0 -- -- 100
2019-07-30 10:00:00 14.6 17 Nordeste 42 Oeste 0 -- -- 100
2019-07-30 09:00:00 14.8 20 Oeste 44 Oeste 0 -- -- 100
2019-07-30 08:00:00 14.8 10 Sur 37 Nordeste 0 -- -- 100
2019-07-30 07:00:00 13.5 9 Sur 43 Noroeste 0 -- -- 100
2019-07-30 06:00:00 14.4 30 Noroeste 49 Noroeste 0 -- -- 100
2019-07-30 05:00:00 14.1 14 Nordeste 45 Norte 0 -- -- 100
2019-07-30 04:00:00 13.9 24 Nordeste 42 Nordeste 0 -- -- 100
2019-07-30 03:00:00 14.1 8 Este 27 Noroeste 0 -- -- 100
2019-07-30 02:00:00 14.3 10 Norte 36 Nordeste 0 -- -- 100
2019-07-30 01:00:00 14.1 22 Nordeste 40 Norte 0 -- -- 100
2019-07-30 00:00:00 14 21 Nordeste 39 Nordeste 0 -- -- 100
2019-07-29 23:00:00 14.3 10 Noroeste 34 Noroeste 0 -- -- 100
2019-07-29 22:00:00 14 11 Nordeste 35 Nordeste 0 -- -- 100
2019-07-29 21:00:00 13.9 19 Norte 42 Nordeste 0 -- -- 98
2019-07-29 20:00:00 14.2 13 Norte 38 Nordeste 0 -- -- 94
2019-07-29 19:00:00 15.1 17 Nordeste 44 Nordeste 0 -- -- 90
2019-07-29 18:00:00 16.7 19 Nordeste 46 Norte 0 -- -- 77
2019-07-29 17:00:00 17.4 16 Noroeste 39 Noroeste 0 -- -- 72
2019-07-29 16:00:00 16.2 26 Noroeste 43 Noroeste 0 -- -- 83
2019-07-29 15:00:00 17.6 12 Nordeste 36 Oeste 0 -- -- 78
2019-07-29 14:00:00 17.8 12 Oeste 37 Noroeste 0 -- -- 78
2019-07-29 13:00:00 15.7 22 Noroeste 36 Noroeste 0 -- -- 87
2019-07-29 12:00:00 15.7 9 Noroeste 33 Oeste 0 -- -- 94
2019-07-29 11:00:00 14.3 9 Noroeste 31 Noroeste 0 -- -- 100
2019-07-29 10:00:00 14.4 20 Noroeste 37 Noroeste 0 -- -- 100
2019-07-29 09:00:00 13.2 26 Noroeste 40 Noroeste 0 -- -- 100
2019-07-29 08:00:00 13 24 Noroeste 37 Noroeste 0 -- -- 100
2019-07-29 07:00:00 12.2 13 Noroeste 22 Noroeste 0 -- -- 100
2019-07-29 06:00:00 13 15 Oeste 22 Noroeste 0.2 -- -- 100
2019-07-29 05:00:00 13.4 15 Noroeste 29 Noroeste 0 -- -- 100
2019-07-29 04:00:00 13.5 17 Noroeste 27 Noroeste 0 -- -- 100
2019-07-29 03:00:00 12.9 12 Noroeste 22 Noroeste 0 -- -- 100
2019-07-29 02:00:00 13.8 13 Noroeste 28 Noroeste 0 -- -- 100
2019-07-29 01:00:00 13.9 16 Noroeste 28 Noroeste 0 -- -- 100
2019-07-29 00:00:00 14.4 8 Nordeste 28 Oeste 0 -- -- 100
2019-07-28 23:00:00 14.6 14 Noroeste 30 Noroeste 0 -- -- 100
2019-07-28 22:00:00 15.3 18 Noroeste 32 Noroeste 0.2 -- -- 100
2019-07-28 21:00:00 15.5 24 Noroeste 35 Noroeste 0 -- -- 100
2019-07-28 20:00:00 15.6 20 Noroeste 28 Noroeste 0 -- -- 100
2019-07-28 19:00:00 16.7 21 Noroeste 30 Noroeste 0 -- -- 98
2019-07-28 18:00:00 18.3 21 Noroeste 32 Noroeste 0 -- -- 92
2019-07-28 17:00:00 18.3 23 Noroeste 36 Oeste 0 -- -- 88
2019-07-28 16:00:00 16.9 29 Noroeste 42 Oeste 0 -- -- 98
2019-07-28 15:00:00 18.2 17 Noroeste 33 Oeste 0 -- -- 90
2019-07-28 14:00:00 17.5 18 Noroeste 30 Noroeste 0 -- -- 96
2019-07-28 13:00:00 16.3 19 Noroeste 36 Noroeste 0 -- -- 99
2019-07-28 12:00:00 15.8 20 Noroeste 36 Noroeste 0 -- -- 99
2019-07-28 11:00:00 15.3 16 Noroeste 31 Noroeste 0 -- -- 100
2019-07-28 10:00:00 14.7 12 Noroeste 27 Noroeste 0.2 -- -- 99
2019-07-28 09:00:00 14.5 19 Noroeste 26 Noroeste 0 -- -- 100
2019-07-28 08:00:00 14.3 10 Oeste 35 Noroeste 0 -- -- 100
2019-07-28 07:00:00 14.6 21 Noroeste 34 Oeste 0 -- -- 100
2019-07-28 06:00:00 14.6 17 Noroeste 36 Noroeste 0 -- -- 100
2019-07-28 05:00:00 14.4 14 Oeste 27 Noroeste 0 -- -- 100
2019-07-28 04:00:00 13.3 12 Noroeste 34 Noroeste 0 -- -- 100
2019-07-28 03:00:00 12.2 19 Noroeste 31 Noroeste 0 -- -- 99
2019-07-28 02:00:00 12.9 22 Noroeste 39 Noroeste 0 -- -- 99
2019-07-28 01:00:00 13.1 18 Noroeste 24 Oeste 0 -- -- 98
2019-07-28 00:00:00 13.9 12 Oeste 23 Noroeste 0 -- -- 78
2019-07-27 23:00:00 12.8 18 Noroeste 26 Noroeste 0 -- -- 98
2019-07-27 22:00:00 12.9 19 Noroeste 27 Noroeste 0 -- -- 92
2019-07-26 11:00:00 -- -- -- -- -- -- -- -- --
2019-07-26 10:00:00 20 12 Oeste 30 Oeste 0 -- -- 56
2019-07-26 09:00:00 18.8 13 Oeste 28 Noroeste 0 -- -- 57
2019-07-26 08:00:00 15.1 17 Noroeste 30 Noroeste 0 -- -- 85
2019-07-26 07:00:00 15 14 Noroeste 27 Noroeste 0 -- -- 83
2019-07-26 06:00:00 15.3 15 Noroeste 31 Noroeste 0 -- -- 80
2019-07-26 05:00:00 16.4 10 Oeste 24 Noroeste 0 -- -- 71
2019-07-26 04:00:00 15.1 16 Oeste 35 Noroeste 0 -- -- 89
2019-07-26 03:00:00 14.5 22 Noroeste 37 Noroeste 0 -- -- 95
2019-07-26 02:00:00 14.5 24 Noroeste 38 Noroeste 0 -- -- 97
2019-07-26 01:00:00 15.4 21 Noroeste 36 Noroeste 0 -- -- 78
2019-07-26 00:00:00 16.9 19 Noroeste 31 Noroeste 0 -- -- 52
2019-07-25 23:00:00 16.1 22 Noroeste 35 Noroeste 0 -- -- 61
2019-07-25 22:00:00 17.3 16 Noroeste 26 Noroeste 0 -- -- 40
2019-07-25 21:00:00 19.7 17 Noroeste 30 Noroeste 0 -- -- 25
2019-07-25 20:00:00 21.4 20 Noroeste 37 Noroeste 0 -- -- 26
2019-07-25 19:00:00 20.6 25 Noroeste 36 Noroeste 0 -- -- 34
2019-07-25 18:00:00 22.6 17 Noroeste 32 Noroeste 0 -- -- 25
2019-07-25 17:00:00 23.1 19 Noroeste 30 Noroeste 0 -- -- 23
2019-07-25 16:00:00 22.6 21 Noroeste 32 Noroeste 0 -- -- 26
2019-07-25 15:00:00 23.9 9 Sudoeste 37 Noroeste 0 -- -- 24
2019-07-25 14:00:00 24.3 12 Nordeste 33 Norte 0 -- -- 21
2019-07-25 13:00:00 24.1 12 Nordeste 30 Nordeste 0 -- -- 19
2019-07-25 12:00:00 23.5 7 Sudoeste 22 Este 0 -- -- 21
2019-07-25 11:00:00 22.1 8 Este 23 Nordeste 0 -- -- 25
2019-07-25 10:00:00 21.3 9 Nordeste 19 Nordeste 0 -- -- 27
2019-07-25 09:00:00 20.6 8 Sudoeste 31 Oeste 0 -- -- 26
2019-07-25 08:00:00 17.4 16 Oeste 28 Oeste 0 -- -- 32
2019-07-25 07:00:00 16.3 12 Oeste 26 Noroeste 0 -- -- 34
2019-07-25 06:00:00 16.4 7 Oeste 29 Oeste 0 -- -- 33
2019-07-25 05:00:00 15.2 18 Oeste 32 Noroeste 0 -- -- 44
2019-07-25 04:00:00 15 16 Noroeste 36 Noroeste 0 -- -- 51
2019-07-25 03:00:00 15 17 Noroeste 27 Noroeste 0 -- -- 51
2019-07-25 02:00:00 15.2 18 Oeste 35 Oeste 0 -- -- 49
2019-07-25 01:00:00 15.7 20 Oeste 35 Noroeste 0 -- -- 47
2019-07-25 00:00:00 15.5 17 Oeste 27 Noroeste 0 -- -- 46
2019-07-24 23:00:00 17 15 Noroeste 29 Noroeste 0 -- -- 41
2019-07-24 22:00:00 17 15 Oeste 29 Oeste 0 -- -- 43
2019-07-24 21:00:00 16.8 18 Oeste 35 Noroeste 0 -- -- 41
2019-07-24 20:00:00 19.5 18 Noroeste 32 Noroeste 0 -- -- 35
2019-07-24 19:00:00 20.6 17 Noroeste 29 Noroeste 0 -- -- 41
2019-07-24 18:00:00 21.4 19 Noroeste 33 Noroeste 0 -- -- 37
2019-07-24 17:00:00 22.6 14 Noroeste 37 Noroeste 0 -- -- 33
2019-07-24 16:00:00 23 12 Norte 30 Norte 0 -- -- 32
2019-07-24 15:00:00 23.6 14 Nordeste 28 Nordeste 0 -- -- 28
2019-07-24 14:00:00 24.6 10 Norte 28 Nordeste 0 -- -- 22
2019-07-24 13:00:00 23.8 9 Norte 24 Nordeste 0 -- -- 29
2019-07-24 12:00:00 22.5 7 Nordeste 23 Este 0 -- -- 26
2019-07-24 11:00:00 23.1 7 Nordeste 26 Este 0 -- -- 27
2019-07-24 10:00:00 22.5 7 Nordeste 19 Norte 0 -- -- 20
2019-07-24 09:00:00 22 11 Nordeste 31 Norte 0 -- -- 15
2019-07-24 08:00:00 18.2 13 Norte 28 Oeste 0 -- -- 28
2019-07-24 07:00:00 14.6 13 Noroeste 27 Noroeste 0 -- -- 55
2019-07-24 06:00:00 14 16 Noroeste 33 Noroeste 0 -- -- 72
2019-07-24 05:00:00 12.9 14 Oeste 37 Norte 0 -- -- 80
2019-07-24 04:00:00 12.6 17 Noroeste 28 Noroeste 0 -- -- 97
2019-07-24 03:00:00 13.5 12 Noroeste 24 Noroeste 0 -- -- 85
2019-07-24 02:00:00 15.6 10 Norte 27 Noroeste 0 -- -- 56
2019-07-24 01:00:00 13.3 11 Noroeste 28 Noroeste 0 -- -- 83
2019-07-24 00:00:00 13.8 14 Noroeste 27 Noroeste 0 -- -- 88
2019-07-23 23:00:00 13.7 6 Noroeste 26 Noroeste 0 -- -- 82
2019-07-23 22:00:00 13 15 Oeste 30 Noroeste 0 -- -- 97
2019-07-23 21:00:00 13.3 18 Noroeste 33 Noroeste 0 -- -- 96
2019-07-23 20:00:00 18.9 9 Norte 32 Norte 0 -- -- 39
2019-07-23 19:00:00 20.7 17 Noroeste 30 Oeste 0 -- -- 25
2019-07-23 18:00:00 18.1 15 Noroeste 24 Noroeste 0 -- -- 64
2019-07-23 17:00:00 19.3 9 Noroeste 22 Noroeste 0 -- -- 58
2019-07-23 16:00:00 17.8 14 Noroeste 31 Noroeste 0 -- -- 74
2019-07-23 15:00:00 19.7 23 Noroeste 32 Noroeste 0 -- -- 51
2019-07-23 14:00:00 20 7 Noroeste 22 Nordeste 0 -- -- 56
2019-07-23 13:00:00 22.8 9 Noroeste 33 Norte 0 -- -- 26
2019-07-23 12:00:00 22.9 20 Nordeste 41 Norte 0 -- -- 21
2019-07-23 11:00:00 22 9 Nordeste 37 Noroeste 0 -- -- 26
2019-07-23 10:00:00 19.3 9 Sur 36 Norte 0 -- -- 46
2019-07-23 09:00:00 19.7 11 Nordeste 38 Nordeste 0 -- -- 29
2019-07-23 08:00:00 13.2 12 Oeste 26 Oeste 0 -- -- 68
2019-07-23 07:00:00 11.9 19 Noroeste 39 Noroeste 0 -- -- 98
2019-07-23 06:00:00 13 18 Oeste 33 Noroeste 0 -- -- 74
2019-07-23 05:00:00 17.6 21 Noroeste 31 Noroeste 0 -- -- 19
2019-07-23 04:00:00 12.2 20 Oeste 33 Noroeste 0 -- -- 99
2019-07-23 03:00:00 11.7 20 Noroeste 26 Noroeste 0 -- -- 98
2019-07-23 02:00:00 12.1 19 Noroeste 25 Noroeste 0 -- -- 99
2019-07-23 01:00:00 12.2 19 Noroeste 36 Noroeste 0 -- -- 99
2019-07-23 00:00:00 12.9 25 Noroeste 35 Noroeste 0 -- -- 99
2019-07-22 23:00:00 12 14 Noroeste 18 Noroeste 0 -- -- 98
2019-07-22 22:00:00 12.5 15 Noroeste 25 Noroeste 0 -- -- 98
2019-07-22 21:00:00 13.1 22 Noroeste 28 Noroeste 0 -- -- 95
2019-07-22 20:00:00 16.2 15 Noroeste 20 Noroeste 0 -- -- 75
2019-07-22 19:00:00 23.2 13 Noroeste 22 Noroeste 0 -- -- 18
2019-07-22 18:00:00 21.9 15 Noroeste 26 Noroeste 0 -- -- 28
2019-07-22 17:00:00 20 21 Noroeste 33 Noroeste 0 -- -- 49
2019-07-22 16:00:00 22.9 17 Noroeste 32 Noroeste 0 -- -- 25
2019-07-22 15:00:00 23.8 12 Noroeste 30 Noroeste 0 -- -- 26
2019-07-22 14:00:00 21.1 16 Noroeste 28 Noroeste 0 -- -- 44
2019-07-22 13:00:00 17.7 21 Noroeste 29 Noroeste 0 -- -- 61
2019-07-22 12:00:00 22.5 17 Noroeste 24 Noroeste 0 -- -- 36
2019-07-22 11:00:00 21.6 17 Noroeste 24 Noroeste 0 -- -- 36
2019-07-22 10:00:00 17 15 Oeste 25 Noroeste 0 -- -- 63
2019-07-22 09:00:00 13.1 16 Noroeste 23 Noroeste 0 -- -- 98
2019-07-22 08:00:00 14.9 14 Noroeste 20 Noroeste 0 -- -- 74
2019-07-22 07:00:00 17.4 9 Oeste 17 Norte 0 -- -- 36
2019-07-22 06:00:00 16.4 9 Noroeste 22 Noroeste 0 -- -- 47
2019-07-22 05:00:00 12.6 15 Noroeste 22 Noroeste 0 -- -- 98
2019-07-22 04:00:00 14.1 10 Noroeste 22 Norte 0 -- -- 83
2019-07-22 03:00:00 15.4 9 Noroeste 22 Noroeste 0 -- -- 62
2019-07-22 02:00:00 13 13 Noroeste 22 Noroeste 0 -- -- 99
2019-07-22 01:00:00 13.6 15 Noroeste 20 Noroeste 0 -- -- 98
2019-07-22 00:00:00 13.6 12 Oeste 22 Noroeste 0 -- -- 97
2019-07-21 23:00:00 14.7 14 Noroeste 25 Noroeste 0 -- -- 78
2019-07-21 22:00:00 16.5 15 Noroeste 23 Noroeste 0 -- -- 52
2019-07-21 21:00:00 17.7 13 Oeste 24 Noroeste 0 -- -- 47
2019-07-21 20:00:00 19.8 13 Noroeste 17 Noroeste 0 -- -- 54
2019-07-21 19:00:00 20.8 8 Noroeste 20 Norte 0 -- -- 49
2019-07-21 18:00:00 19.1 17 Noroeste 22 Noroeste 0 -- -- 68
2019-07-21 17:00:00 20.6 13 Noroeste 22 Norte 0 -- -- 59
2019-07-21 16:00:00 19.9 15 Noroeste 22 Norte 0 -- -- 68
2019-07-21 15:00:00 20.1 14 Noroeste 21 Noroeste 0 -- -- 67
2019-07-21 14:00:00 18.1 13 Noroeste 27 Noroeste 0 -- -- 76
2019-07-21 13:00:00 18.1 14 Noroeste 22 Noroeste 0 -- -- 75
2019-07-21 12:00:00 22.1 6 Norte 17 Este 0 -- -- 58
2019-07-21 11:00:00 20.9 4 Norte 19 Noroeste 0 -- -- 73
2019-07-21 10:00:00 14.9 10 Noroeste 21 Norte 0 -- -- 99
2019-07-21 09:00:00 13.8 14 Noroeste 22 Noroeste 0 -- -- 100
2019-07-21 08:00:00 13.4 13 Noroeste 20 Noroeste 0 -- -- 100
2019-07-21 07:00:00 13.3 13 Noroeste 19 Noroeste 0 -- -- 100
2019-07-21 06:00:00 13.3 13 Noroeste 25 Noroeste 0 -- -- 100
2019-07-21 05:00:00 13.3 17 Noroeste 32 Noroeste 0 -- -- 100
2019-07-21 04:00:00 13.6 8 Noroeste 22 Noroeste 0 -- -- 100
2019-07-21 03:00:00 13.9 8 Norte 23 Noroeste 0 -- -- 100
2019-07-21 02:00:00 13.4 12 Noroeste 21 Norte 0 -- -- 100
2019-07-21 01:00:00 13.2 16 Noroeste 24 Noroeste 0 -- -- 100
2019-07-21 00:00:00 13.4 9 Noroeste 24 Noroeste 0 -- -- 100